Little Rock, Illinois
Current Conditions -  °F | °C
As of 4:09 PM on Thursday 27 Nov 2014 (Local Time) from KARR Reporting Station
Light Snow Light Snow  
Wind Chill: 11°   Ceiling: 3000
Heat Index: 23°   Visibility: 5mi
Dew Point: 16°   Wind: 13mph
Humidity: 74%   Direction: 300°WNW
Pressure: 30.39"   Gusts: NA
Location:  41.6798°N, 88.537°W
Report Text: KARR 272209Z 30011KT 5SM -SN FEW022 BKN030 OVC037 M05/M09 A3039 RMK AO2 P0000 T10501089 $
Loading
Personal Weather Stations






























Interactive Weather Map New forecast layout! Learn more

10-Day Weather Forecast

Advertisements
Track Severe Weather on mobile